createdAt,value
2018-09-21T00:00:31.512Z,13.83
2018-09-21T00:04:58.017Z,15.23
2018-09-21T00:07:03.444Z,13.50
2018-09-21T00:09:10.296Z,14.83
2018-09-21T00:11:14.395Z,13.40
2018-09-21T00:13:18.404Z,12.67
2018-09-21T00:15:24.712Z,13.83
2018-09-21T00:17:28.656Z,10.37
2018-09-21T00:19:33.521Z,13.17
2018-09-21T00:21:37.921Z,10.43
2018-09-21T00:23:41.830Z,11.47
2018-09-21T00:25:45.865Z,16.77
2018-09-21T00:27:50.261Z,12.53
2018-09-21T00:29:54.172Z,13.23
2018-09-21T00:31:58.156Z,15.77
2018-09-21T00:34:02.817Z,15.10
2018-09-21T00:36:06.758Z,12.27
2018-09-21T00:38:11.263Z,13.70
2018-09-21T00:40:15.348Z,11.57
2018-09-21T00:42:19.309Z,11.83
2018-09-21T00:44:23.212Z,16.47
2018-09-21T00:46:34.049Z,12.73
2018-09-21T00:48:38.984Z,12.73
2018-09-21T00:50:46.041Z,16.50
2018-09-21T00:52:50.059Z,13.83
2018-09-21T00:54:54.611Z,10.20
2018-09-21T00:56:59.661Z,15.47
2018-09-21T00:59:04.092Z,14.60
2018-09-21T01:01:08.096Z,13.17
2018-09-21T01:03:12.191Z,16.57
2018-09-21T01:05:16.197Z,13.40
2018-09-21T01:07:21.444Z,14.77
2018-09-21T01:09:25.544Z,13.40
2018-09-21T01:11:29.915Z,12.10
2018-09-21T01:13:33.888Z,16.00
2018-09-21T01:15:38.045Z,16.47
2018-09-21T01:17:42.560Z,10.30
2018-09-21T01:19:48.070Z,12.03
2018-09-21T01:21:56.590Z,14.63
2018-09-21T01:24:01.378Z,15.10
2018-09-21T01:26:05.441Z,12.23
2018-09-21T01:28:09.764Z,15.63
2018-09-21T01:30:14.792Z,17.00
2018-09-21T01:32:18.793Z,14.73
2018-09-21T01:34:24.452Z,14.67
2018-09-21T01:36:28.526Z,12.37
2018-09-21T01:38:34.104Z,14.37
2018-09-21T01:40:41.024Z,13.47
2018-09-21T01:42:44.986Z,16.17
2018-09-21T01:44:50.523Z,16.43
2018-09-21T01:46:55.090Z,17.00
2018-09-21T01:48:59.093Z,13.63
2018-09-21T01:51:03.040Z,12.53
2018-09-21T01:53:07.660Z,12.90
2018-09-21T01:55:11.636Z,14.13
2018-09-21T01:57:15.716Z,14.33
2018-09-21T01:59:20.102Z,16.03
2018-09-21T02:01:24.107Z,13.00
2018-09-21T02:03:28.165Z,15.33
2018-09-21T02:05:32.224Z,14.10
2018-09-21T02:07:36.310Z,13.90
2018-09-21T02:09:41.065Z,13.50
2018-09-21T02:11:45.541Z,20.93
2018-09-21T02:13:49.579Z,14.97
2018-09-21T02:15:54.259Z,14.93
2018-09-21T02:17:58.543Z,17.00
2018-09-21T02:20:02.492Z,17.53
2018-09-21T02:22:06.476Z,11.47
2018-09-21T02:24:10.801Z,15.77
2018-09-21T02:26:14.796Z,13.00
2018-09-21T02:28:18.744Z,12.10
2018-09-21T02:30:24.530Z,18.80
2018-09-21T02:32:28.578Z,15.47
2018-09-21T02:34:32.605Z,13.63
2018-09-21T02:36:37.116Z,17.17
2018-09-21T02:38:41.062Z,14.83
2018-09-21T02:40:45.029Z,16.93
2018-09-21T02:42:49.336Z,12.87
2018-09-21T02:44:53.278Z,15.70
2018-09-21T02:46:57.308Z,13.83
2018-09-21T02:49:01.659Z,13.20
2018-09-21T02:51:05.723Z,14.07
2018-09-21T02:53:09.865Z,13.97
2018-09-21T02:55:15.017Z,18.70
2018-09-21T02:57:19.153Z,16.40
2018-09-21T02:59:23.298Z,17.10
2018-09-21T03:01:28.217Z,16.87
2018-09-21T03:03:32.283Z,16.80
2018-09-21T03:05:36.416Z,16.33
2018-09-21T03:07:40.810Z,13.67
2018-09-21T03:09:44.880Z,15.67
2018-09-21T03:11:48.924Z,12.80
2018-09-21T03:13:53.037Z,20.40
2018-09-21T03:15:57.144Z,14.70
2018-09-21T03:18:02.062Z,16.83
2018-09-21T03:20:06.836Z,22.03
2018-09-21T03:22:11.020Z,20.17
2018-09-21T03:24:15.037Z,15.07
2018-09-21T03:26:19.340Z,16.37
2018-09-21T03:28:24.052Z,20.20
2018-09-21T03:30:28.104Z,23.03
2018-09-21T03:32:32.558Z,17.53
2018-09-21T03:34:38.196Z,15.67
2018-09-21T03:36:42.279Z,18.67
2018-09-21T03:38:46.678Z,17.30
2018-09-21T03:40:50.763Z,20.00
2018-09-21T03:42:54.831Z,18.07
2018-09-21T03:44:59.525Z,18.63
2018-09-21T03:47:03.483Z,20.90
2018-09-21T03:49:08.317Z,18.80
2018-09-21T03:51:13.375Z,19.27
2018-09-21T03:53:17.391Z,18.43
2018-09-21T03:55:21.510Z,20.77
2018-09-21T03:57:25.840Z,20.43
2018-09-21T03:59:29.840Z,19.50
2018-09-21T04:01:33.894Z,19.17
2018-09-21T04:03:45.383Z,19.77
2018-09-21T04:05:51.278Z,16.47
2018-09-21T04:07:55.338Z,22.10
2018-09-21T04:10:00.215Z,16.90
2018-09-21T04:12:06.312Z,20.33
2018-09-21T04:14:11.496Z,16.07
2018-09-21T04:16:16.569Z,14.67
2018-09-21T04:18:20.840Z,22.67
2018-09-21T04:20:24.893Z,19.53
2018-09-21T04:22:29.696Z,18.03
2018-09-21T04:24:34.681Z,19.77
2018-09-21T04:26:40.185Z,19.90
2018-09-21T04:28:53.479Z,20.13
2018-09-21T04:30:59.934Z,17.20
2018-09-21T04:33:07.660Z,17.33
2018-09-21T04:35:14.207Z,17.87
2018-09-21T04:37:23.826Z,18.60
2018-09-21T04:39:27.853Z,19.03
2018-09-21T04:41:32.380Z,21.77
2018-09-21T04:43:36.441Z,20.93
2018-09-21T04:45:41.066Z,14.77
2018-09-21T04:47:45.273Z,20.10
2018-09-21T04:49:49.297Z,18.57
2018-09-21T04:51:54.343Z,19.57
2018-09-21T04:53:59.784Z,17.10
2018-09-21T04:56:03.942Z,19.43
2018-09-21T05:00:36.841Z,17.73
2018-09-21T05:02:41.074Z,20.63
2018-09-21T05:04:45.078Z,19.37
2018-09-21T05:06:49.544Z,21.40
2018-09-21T05:08:53.675Z,20.57
2018-09-21T05:10:58.187Z,20.90
2018-09-21T05:13:03.978Z,19.73
2018-09-21T05:15:08.059Z,17.37
2018-09-21T05:17:12.285Z,22.33
2018-09-21T05:19:16.392Z,17.47
2018-09-21T05:21:21.014Z,24.13
2018-09-21T05:23:33.773Z,21.23
2018-09-21T05:25:40.014Z,19.17
2018-09-21T05:27:44.079Z,21.63
2018-09-21T05:29:49.644Z,18.80
2018-09-21T05:31:54.685Z,18.43
2018-09-21T05:33:58.696Z,17.80
2018-09-21T05:36:03.580Z,21.40
2018-09-21T05:38:07.833Z,25.50
2018-09-21T05:40:14.900Z,19.37
2018-09-21T05:42:20.716Z,20.87
2018-09-21T05:44:24.653Z,18.23
2018-09-21T05:46:29.433Z,20.10
2018-09-21T05:48:33.389Z,21.87
2018-09-21T05:50:39.514Z,21.40
2018-09-21T05:52:45.256Z,20.50
2018-09-21T05:54:50.484Z,18.37
2018-09-21T05:56:55.949Z,19.20
2018-09-21T05:58:59.909Z,22.47
2018-09-21T06:01:05.873Z,26.57
2018-09-21T06:03:10.470Z,21.07
2018-09-21T06:05:14.771Z,22.07
2018-09-21T06:07:19.367Z,22.37
2018-09-21T06:09:23.664Z,22.40
2018-09-21T06:11:27.844Z,25.80
2018-09-21T06:13:34.963Z,22.17
2018-09-21T06:15:39.570Z,22.60
2018-09-21T06:17:44.333Z,21.20
2018-09-21T06:19:48.498Z,17.23
2018-09-21T06:21:52.780Z,19.43
2018-09-21T06:23:57.326Z,22.10
2018-09-21T06:26:01.792Z,22.47
2018-09-21T06:28:08.493Z,22.07
2018-09-21T06:30:16.353Z,20.50
2018-09-21T06:32:21.039Z,18.13
2018-09-21T06:34:25.424Z,20.07
2018-09-21T06:36:30.357Z,21.83
2018-09-21T06:38:35.121Z,21.93
2018-09-21T06:40:40.386Z,17.83
2018-09-21T06:42:44.356Z,18.20
2018-09-21T06:44:48.329Z,17.60
2018-09-21T06:46:54.020Z,16.90
2018-09-21T06:48:58.282Z,17.70
2018-09-21T06:51:02.451Z,19.00
2018-09-21T06:53:07.030Z,19.60
2018-09-21T06:55:11.526Z,23.73
2018-09-21T06:57:17.590Z,22.43
2018-09-21T06:59:21.682Z,20.10
2018-09-21T07:01:26.829Z,19.43
2018-09-21T07:03:30.797Z,18.63
2018-09-21T07:05:37.292Z,18.83
2018-09-21T07:07:41.492Z,22.00
2018-09-21T07:09:47.968Z,20.17
2018-09-21T07:11:53.311Z,17.40
2018-09-21T07:13:58.268Z,20.23
2018-09-21T07:16:02.329Z,22.57
2018-09-21T07:18:08.892Z,21.17
2018-09-21T07:20:16.060Z,21.97
2018-09-21T07:22:21.424Z,21.60
2018-09-21T07:24:26.030Z,19.27
2018-09-21T07:26:30.770Z,17.13
2018-09-21T07:28:35.011Z,17.83
2018-09-21T07:30:42.946Z,18.40
2018-09-21T07:32:50.001Z,16.70
2018-09-21T07:34:56.381Z,18.63
2018-09-21T07:37:02.699Z,15.10
2018-09-21T07:39:08.700Z,19.03
2018-09-21T07:41:12.938Z,15.73
2018-09-21T07:43:17.458Z,21.27
2018-09-21T07:45:25.102Z,18.93
2018-09-21T07:47:29.222Z,17.57
2018-09-21T07:49:34.480Z,21.13
2018-09-21T07:51:38.609Z,18.73
2018-09-21T07:53:42.915Z,16.73
2018-09-21T07:55:47.808Z,15.90
2018-09-21T07:57:51.836Z,17.20
2018-09-21T07:59:55.783Z,18.30
2018-09-21T08:02:00.780Z,17.87
2018-09-21T08:04:04.828Z,16.17
2018-09-21T08:06:09.881Z,18.13
2018-09-21T08:08:14.845Z,16.87
2018-09-21T08:10:18.826Z,15.50
2018-09-21T08:12:24.433Z,17.37
2018-09-21T08:14:28.526Z,15.93
2018-09-21T08:16:34.581Z,15.03
2018-09-21T08:18:39.232Z,13.90
2018-09-21T08:20:45.991Z,22.13
2018-09-21T08:22:50.958Z,15.93
2018-09-21T08:24:55.420Z,16.77
2018-09-21T08:27:01.595Z,16.97
2018-09-21T08:29:06.795Z,15.43
2018-09-21T08:31:11.791Z,17.13
2018-09-21T08:33:17.783Z,16.80
2018-09-21T08:35:23.462Z,22.20
2018-09-21T08:37:30.757Z,15.30
2018-09-21T08:39:35.473Z,15.37
2018-09-21T08:41:41.978Z,15.20
2018-09-21T08:43:46.253Z,16.50
2018-09-21T08:45:50.809Z,19.33
2018-09-21T08:47:55.701Z,14.47
2018-09-21T08:49:59.872Z,18.97
2018-09-21T08:52:05.122Z,24.23
2018-09-21T08:54:10.422Z,17.37
2018-09-21T08:56:14.445Z,17.33
2018-09-21T08:58:18.732Z,14.37
2018-09-21T09:00:25.736Z,19.33
2018-09-21T09:02:31.643Z,13.93
2018-09-21T09:04:37.042Z,15.53
2018-09-21T09:06:43.167Z,11.47
2018-09-21T09:08:47.278Z,15.53
2018-09-21T09:10:51.506Z,15.50
2018-09-21T09:12:56.245Z,17.77
2018-09-21T09:15:04.925Z,17.00
2018-09-21T09:17:09.296Z,14.43
2018-09-21T09:19:14.416Z,16.67
2018-09-21T09:21:19.384Z,13.87
2018-09-21T09:23:25.457Z,11.70
2018-09-21T09:25:31.806Z,11.33
2018-09-21T09:27:37.200Z,16.00
2018-09-21T09:29:43.382Z,15.07
2018-09-21T09:31:49.319Z,13.93
2018-09-21T09:33:53.999Z,14.63
2018-09-21T09:35:57.957Z,14.80
2018-09-21T09:38:01.889Z,19.30
2018-09-21T09:40:06.650Z,15.93
2018-09-21T09:42:11.284Z,11.27
2018-09-21T09:44:16.084Z,13.63
2018-09-21T09:46:20.341Z,15.70
2018-09-21T09:48:24.677Z,11.57
2018-09-21T09:50:32.613Z,14.77
2018-09-21T09:52:38.322Z,12.13
2018-09-21T09:54:42.610Z,10.73
2018-09-21T09:56:47.590Z,16.73
2018-09-21T09:58:51.576Z,14.97
2018-09-21T10:00:58.578Z,11.30
2018-09-21T10:03:03.580Z,14.83
2018-09-21T10:05:08.104Z,15.13
2018-09-21T10:07:22.524Z,12.53
2018-09-21T10:09:27.277Z,11.83
2018-09-21T10:11:31.481Z,8.37
2018-09-21T10:13:37.517Z,9.77
2018-09-21T10:15:44.255Z,9.10
2018-09-21T10:17:48.422Z,10.70
2018-09-21T10:19:54.083Z,15.10
2018-09-21T10:21:59.267Z,10.47
2018-09-21T10:24:03.836Z,12.30
2018-09-21T10:26:08.890Z,8.30
2018-09-21T10:28:13.363Z,11.80
2018-09-21T10:30:17.382Z,13.10
2018-09-21T10:32:21.704Z,9.10
2018-09-21T10:34:34.109Z,10.13
2018-09-21T10:36:39.401Z,8.60
2018-09-21T10:38:48.826Z,6.60
2018-09-21T10:40:53.911Z,10.10
2018-09-21T10:42:57.996Z,12.07
2018-09-21T10:45:03.318Z,8.53
2018-09-21T10:47:07.574Z,8.00
2018-09-21T10:49:11.736Z,9.17
2018-09-21T10:51:15.774Z,7.97
2018-09-21T10:53:20.759Z,8.77
2018-09-21T10:55:25.686Z,12.83
2018-09-21T10:57:31.561Z,9.53
2018-09-21T10:59:36.323Z,8.53
2018-09-21T11:01:40.319Z,11.87
2018-09-21T11:03:45.837Z,10.13
2018-09-21T11:05:49.847Z,8.20
2018-09-21T11:07:53.875Z,8.87
2018-09-21T11:09:58.434Z,6.50
2018-09-21T11:12:03.309Z,7.57
2018-09-21T11:14:08.930Z,6.57
2018-09-21T11:16:14.152Z,7.03
2018-09-21T11:18:18.298Z,10.00
2018-09-21T11:20:22.373Z,6.33
2018-09-21T11:22:27.460Z,10.17
2018-09-21T11:24:31.792Z,8.80
2018-09-21T11:26:35.896Z,10.77
2018-09-21T11:28:44.042Z,8.00
2018-09-21T11:30:49.347Z,4.87
2018-09-21T11:32:54.245Z,11.20
2018-09-21T11:34:59.466Z,6.47
2018-09-21T11:37:03.405Z,4.57
2018-09-21T11:39:09.165Z,6.63
2018-09-21T11:41:13.439Z,5.73
2018-09-21T11:43:21.989Z,6.30
2018-09-21T11:45:26.176Z,4.13
2018-09-21T11:47:30.684Z,11.30
2018-09-21T11:49:34.667Z,7.33
2018-09-21T11:51:39.249Z,11.87
2018-09-21T11:53:45.427Z,6.40
2018-09-21T11:55:49.521Z,5.77
2018-09-21T11:57:55.334Z,6.97
2018-09-21T12:00:00.430Z,10.13
2018-09-21T12:02:06.149Z,8.03
2018-09-21T12:04:10.881Z,8.47
2018-09-21T12:06:16.842Z,5.33
2018-09-21T12:08:22.299Z,5.17
2018-09-21T12:10:26.421Z,6.23
2018-09-21T12:12:31.741Z,7.93
2018-09-21T12:14:38.618Z,7.30
2018-09-21T12:16:46.543Z,6.53
2018-09-21T12:18:51.825Z,12.53
2018-09-21T12:21:00.068Z,10.97
2018-09-21T12:23:05.429Z,12.30
2018-09-21T12:25:09.906Z,7.67
2018-09-21T12:27:15.248Z,8.67
2018-09-21T12:29:20.730Z,17.20
2018-09-21T12:31:25.144Z,8.97
2018-09-21T12:33:33.251Z,8.43
2018-09-21T12:35:38.504Z,10.07
2018-09-21T12:37:45.834Z,7.10
2018-09-21T12:42:01.901Z,9.77
2018-09-21T12:44:07.625Z,15.53
2018-09-21T12:46:20.008Z,10.73
2018-09-21T12:48:25.352Z,6.40
2018-09-21T12:50:30.619Z,6.47
2018-09-21T12:52:36.376Z,8.27
2018-09-21T12:54:42.483Z,3.90
2018-09-21T12:56:46.757Z,7.43
2018-09-21T12:58:51.772Z,5.33
2018-09-21T13:00:56.441Z,7.90
2018-09-21T13:03:02.463Z,2.73
2018-09-21T13:05:09.767Z,1.50
2018-09-21T13:07:13.765Z,4.40
2018-09-21T13:09:20.140Z,2.13
2018-09-21T13:11:24.455Z,2.07
2018-09-21T13:13:30.744Z,1.13
2018-09-21T13:15:34.712Z,0.93
2018-09-21T13:17:39.411Z,0.80
2018-09-21T13:19:47.013Z,1.93
2018-09-21T13:21:52.132Z,1.13
2018-09-21T13:23:56.114Z,1.47
2018-09-21T13:26:00.236Z,1.17
2018-09-21T13:28:04.579Z,0.40
2018-09-21T13:30:16.606Z,0.50
2018-09-21T13:32:24.346Z,1.50
2018-09-21T13:34:28.777Z,1.43
2018-09-21T13:36:33.907Z,2.60
2018-09-21T13:38:37.958Z,1.97
2018-09-21T13:40:42.081Z,1.50
2018-09-21T13:42:46.380Z,1.37
2018-09-21T13:44:51.303Z,2.23
2018-09-21T13:46:56.650Z,8.10
2018-09-21T13:49:02.438Z,2.83
2018-09-21T13:51:07.053Z,3.33
2018-09-21T13:53:11.353Z,1.67
2018-09-21T13:55:15.299Z,3.43
2018-09-21T13:57:20.021Z,3.67
2018-09-21T13:59:25.860Z,4.23
2018-09-21T14:01:31.546Z,2.87
2018-09-21T14:03:35.565Z,4.47
2018-09-21T14:05:41.553Z,5.07
2018-09-21T14:07:45.712Z,4.20
2018-09-21T14:09:51.037Z,3.07
2018-09-21T14:11:56.175Z,3.43
2018-09-21T14:14:00.126Z,4.37
2018-09-21T14:16:04.962Z,2.70
2018-09-21T14:18:10.434Z,2.87
2018-09-21T14:20:15.623Z,2.00
2018-09-21T14:22:19.693Z,5.50
2018-09-21T14:24:26.999Z,2.77
2018-09-21T14:26:31.928Z,5.10
2018-09-21T14:28:38.565Z,3.70
2018-09-21T14:30:43.028Z,5.57
2018-09-21T14:32:47.003Z,3.87
2018-09-21T14:34:51.313Z,2.97
2018-09-21T14:36:55.568Z,5.20
2018-09-21T14:39:00.586Z,3.90
2018-09-21T14:41:05.325Z,4.13
2018-09-21T14:43:11.411Z,4.97
2018-09-21T14:45:16.206Z,4.83
2018-09-21T14:47:20.231Z,5.00
2018-09-21T14:49:25.827Z,4.33
2018-09-21T14:51:29.873Z,6.23
2018-09-21T14:53:34.334Z,7.57
2018-09-21T14:55:40.541Z,8.07
2018-09-21T14:57:46.467Z,7.50
2018-09-21T15:02:13.845Z,5.70
2018-09-21T15:04:17.847Z,6.23
2018-09-21T15:06:22.765Z,5.57
2018-09-21T15:08:29.207Z,10.67
2018-09-21T15:10:33.236Z,7.40
2018-09-21T15:12:37.283Z,6.57
2018-09-21T15:14:43.004Z,4.47
2018-09-21T15:16:47.489Z,8.57
2018-09-21T15:18:53.716Z,4.97
2018-09-21T15:21:01.480Z,6.13
2018-09-21T15:23:05.832Z,4.93
2018-09-21T15:25:10.755Z,6.23
2018-09-21T15:27:15.345Z,6.03
2018-09-21T15:29:20.045Z,4.93
2018-09-21T15:31:24.052Z,3.17
2018-09-21T15:33:31.243Z,6.93
2018-09-21T15:35:35.186Z,5.37
2018-09-21T15:37:41.482Z,5.03
2018-09-21T15:39:46.292Z,4.53
2018-09-21T15:41:50.352Z,5.90
2018-09-21T15:43:54.969Z,4.67
2018-09-21T15:46:00.278Z,5.77
2018-09-21T15:48:11.182Z,4.30
2018-09-21T15:50:18.261Z,6.70
2018-09-21T15:52:22.280Z,8.57
2018-09-21T15:54:26.248Z,7.07
2018-09-21T15:56:30.893Z,8.37
2018-09-21T15:58:37.204Z,6.73
2018-09-21T16:00:42.674Z,7.73
2018-09-21T16:02:48.133Z,7.00
2018-09-21T16:04:52.417Z,5.53
2018-09-21T16:06:57.007Z,6.53
2018-09-21T16:09:04.553Z,7.00
2018-09-21T16:11:10.540Z,7.73
2018-09-21T16:13:17.304Z,8.20
2018-09-21T16:15:29.231Z,5.20
2018-09-21T16:17:33.205Z,7.20
2018-09-21T16:19:38.770Z,7.37
2018-09-21T16:21:45.173Z,7.37
2018-09-21T16:24:05.341Z,6.93
2018-09-21T16:26:10.529Z,6.87
2018-09-21T16:28:17.007Z,6.37
2018-09-21T16:30:22.977Z,7.97
2018-09-21T16:32:26.937Z,8.03
2018-09-21T16:34:33.490Z,8.73
2018-09-21T16:36:38.324Z,7.90
2018-09-21T16:38:43.339Z,11.17
2018-09-21T16:40:48.414Z,4.70
2018-09-21T16:42:52.566Z,8.93
2018-09-21T16:44:57.546Z,6.03
2018-09-21T16:47:06.088Z,6.70
2018-09-21T16:49:10.348Z,4.53
2018-09-21T16:51:16.256Z,6.00
2018-09-21T16:53:20.172Z,5.43
2018-09-21T16:55:26.485Z,7.77
2018-09-21T16:57:31.546Z,6.30
2018-09-21T16:59:39.747Z,4.10
2018-09-21T17:01:45.691Z,5.77
2018-09-21T17:03:49.687Z,6.40
2018-09-21T17:05:57.229Z,5.73
2018-09-21T17:08:01.227Z,4.60
2018-09-21T17:10:05.262Z,5.03
2018-09-21T17:12:09.509Z,6.87
2018-09-21T17:14:13.870Z,5.70
2018-09-21T17:16:17.968Z,4.73
2018-09-21T17:18:24.158Z,5.73
2018-09-21T17:20:28.820Z,5.33
2018-09-21T17:22:34.451Z,3.67
2018-09-21T17:24:40.426Z,6.03
2018-09-21T17:26:45.319Z,5.23
2018-09-21T17:28:51.372Z,7.60
2018-09-21T17:30:56.268Z,3.80
2018-09-21T17:33:05.778Z,4.87
2018-09-21T17:35:17.038Z,2.57
2018-09-21T17:37:23.570Z,3.23
2018-09-21T17:39:30.031Z,5.77
2018-09-21T17:41:37.781Z,3.63
2018-09-21T17:43:42.089Z,1.73
2018-09-21T17:45:46.848Z,3.33
2018-09-21T17:47:50.925Z,7.13
2018-09-21T17:49:55.400Z,3.83
2018-09-21T17:51:59.460Z,3.70
2018-09-21T17:54:07.427Z,2.53
2018-09-21T17:56:11.776Z,4.00
2018-09-21T17:58:18.757Z,3.87
2018-09-21T18:00:25.398Z,1.77
2018-09-21T18:02:29.846Z,2.73
2018-09-21T18:04:38.987Z,4.87
2018-09-21T18:06:43.002Z,4.47
2018-09-21T18:08:49.291Z,2.33
2018-09-21T18:10:55.128Z,2.83
2018-09-21T18:12:59.073Z,5.47
2018-09-21T18:15:04.305Z,1.27
2018-09-21T18:17:15.426Z,2.20
2018-09-21T18:19:20.179Z,5.13
2018-09-21T18:21:26.305Z,1.70
2018-09-21T18:23:30.955Z,2.30
2018-09-21T18:25:37.885Z,5.43
2018-09-21T18:27:45.263Z,3.10
2018-09-21T18:29:49.612Z,4.23
2018-09-21T18:31:53.697Z,2.10
2018-09-21T18:34:00.572Z,3.77
2018-09-21T18:36:05.717Z,2.10
2018-09-21T18:38:11.570Z,2.20
2018-09-21T18:40:16.684Z,1.20
2018-09-21T18:42:23.241Z,2.33
2018-09-21T18:44:29.866Z,5.30
2018-09-21T18:46:34.774Z,3.80
2018-09-21T18:48:38.845Z,1.37
2018-09-21T18:50:45.065Z,2.40
2018-09-21T18:52:49.369Z,5.23
2018-09-21T18:54:53.333Z,5.87
2018-09-21T18:56:59.080Z,3.67
2018-09-21T18:59:03.389Z,4.07
2018-09-21T19:01:08.441Z,3.10
2018-09-21T19:03:13.454Z,4.53
2018-09-21T19:05:17.708Z,2.00
2018-09-21T19:07:30.104Z,4.30
2018-09-21T19:09:37.080Z,4.00
2018-09-21T19:11:43.524Z,2.57
2018-09-21T19:13:49.331Z,2.13
2018-09-21T19:15:55.229Z,2.33
2018-09-21T19:18:00.657Z,3.53
2018-09-21T19:20:13.549Z,2.80
2018-09-21T19:22:21.726Z,3.73
2018-09-21T19:24:31.427Z,6.17
2018-09-21T19:26:36.290Z,3.83
2018-09-21T19:28:40.824Z,3.70
2018-09-21T19:30:45.201Z,4.00
2018-09-21T19:32:52.024Z,3.73
2018-09-21T19:34:56.730Z,2.03
2018-09-21T19:37:01.606Z,2.53
2018-09-21T19:39:09.412Z,2.27
2018-09-21T19:41:16.478Z,4.27
2018-09-21T19:43:22.409Z,2.63
2018-09-21T19:45:43.445Z,2.13
2018-09-21T19:47:49.021Z,3.10
2018-09-21T19:49:55.329Z,2.03
2018-09-21T19:52:01.992Z,3.50
2018-09-21T19:54:10.492Z,1.87
2018-09-21T19:56:16.322Z,3.97
2018-09-21T19:58:21.407Z,6.13
2018-09-21T20:00:26.428Z,1.80
2018-09-21T20:02:31.715Z,1.37
2018-09-21T20:04:37.288Z,5.37
2018-09-21T20:06:42.482Z,3.73
2018-09-21T20:08:50.372Z,3.43
2018-09-21T20:10:54.726Z,3.03
2018-09-21T20:12:58.967Z,2.07
2018-09-21T20:15:05.031Z,2.10
2018-09-21T20:17:09.291Z,2.63
2018-09-21T20:19:13.618Z,4.00
2018-09-21T20:21:24.962Z,3.67
2018-09-21T20:23:32.653Z,4.13
2018-09-21T20:25:41.554Z,2.77
2018-09-21T20:27:46.349Z,2.83
2018-09-21T20:29:50.673Z,1.70
2018-09-21T20:32:02.392Z,2.77
2018-09-21T20:34:08.379Z,2.27
2018-09-21T20:36:14.709Z,2.03
2018-09-21T20:38:19.326Z,4.90
2018-09-21T20:40:24.050Z,5.43
2018-09-21T20:42:28.668Z,4.33
2018-09-21T20:44:35.450Z,4.97
2018-09-21T20:46:40.871Z,3.10
2018-09-21T20:48:47.963Z,2.63
2018-09-21T20:50:54.242Z,6.30
2018-09-21T20:53:05.662Z,4.30
2018-09-21T20:55:15.100Z,4.00
2018-09-21T20:57:21.367Z,4.10
2018-09-21T20:59:25.610Z,2.63
2018-09-21T21:01:32.636Z,2.47
2018-09-21T21:03:36.761Z,4.57
2018-09-21T21:05:41.553Z,3.97
2018-09-21T21:07:47.741Z,2.93
2018-09-21T21:09:52.489Z,5.10
2018-09-21T21:11:59.074Z,4.97
2018-09-21T21:14:03.995Z,1.67
2018-09-21T21:16:08.735Z,3.23
2018-09-21T21:18:14.370Z,4.37
2018-09-21T21:20:20.792Z,4.20
2018-09-21T21:22:25.623Z,4.63
2018-09-21T21:24:31.044Z,2.73
2018-09-21T21:26:36.080Z,3.40
2018-09-21T21:28:40.861Z,5.77
2018-09-21T21:30:46.260Z,3.47
2018-09-21T21:32:50.237Z,3.67
2018-09-21T21:34:55.932Z,3.93
2018-09-21T21:37:00.331Z,2.27
2018-09-21T21:39:08.812Z,5.33
2018-09-21T21:41:14.212Z,4.37
2018-09-21T21:43:20.989Z,4.10
2018-09-21T21:45:25.926Z,4.47
2018-09-21T21:47:30.856Z,3.43
2018-09-21T21:49:37.759Z,4.17
2018-09-21T21:51:44.311Z,5.87
2018-09-21T21:53:48.293Z,5.53
2018-09-21T21:55:53.405Z,5.13
2018-09-21T21:58:01.078Z,7.10
2018-09-21T22:00:06.341Z,5.00
2018-09-21T22:02:12.232Z,5.57
2018-09-21T22:04:17.729Z,6.10
2018-09-21T22:06:21.701Z,4.63
2018-09-21T22:08:26.369Z,7.07
2018-09-21T22:10:30.749Z,5.13
2018-09-21T22:12:41.017Z,5.27
2018-09-21T22:14:45.507Z,6.80
2018-09-21T22:16:50.720Z,6.23
2018-09-21T22:18:55.731Z,4.77
2018-09-21T22:21:00.406Z,5.23
2018-09-21T22:23:04.615Z,9.03
2018-09-21T22:25:09.133Z,4.70
2018-09-21T22:27:13.073Z,6.17
2018-09-21T22:29:19.386Z,5.23
2018-09-21T22:31:25.322Z,9.87
2018-09-21T22:33:30.522Z,9.83
2018-09-21T22:35:35.328Z,6.23
2018-09-21T22:37:41.990Z,6.30
2018-09-21T22:39:47.690Z,3.83
2018-09-21T22:41:54.639Z,8.43
2018-09-21T22:43:58.603Z,6.57
2018-09-21T22:46:03.264Z,4.47
2018-09-21T22:48:07.616Z,7.20
2018-09-21T22:50:12.913Z,6.37
2018-09-21T22:52:16.815Z,5.10
2018-09-21T22:54:21.218Z,10.13
2018-09-21T22:56:25.183Z,8.10
2018-09-21T22:58:29.351Z,8.07
2018-09-21T23:00:40.428Z,4.63
2018-09-21T23:02:44.421Z,9.30
2018-09-21T23:04:48.946Z,5.20
2018-09-21T23:06:54.009Z,6.93
2018-09-21T23:08:59.000Z,5.47
2018-09-21T23:11:02.986Z,7.83
2018-09-21T23:13:08.284Z,7.93
2018-09-21T23:15:15.428Z,13.10
2018-09-21T23:17:19.540Z,9.27
2018-09-21T23:19:24.761Z,7.33
2018-09-21T23:21:30.163Z,7.10
2018-09-21T23:23:37.250Z,6.40
2018-09-21T23:25:41.196Z,7.60
2018-09-21T23:27:46.945Z,8.23
2018-09-21T23:29:50.880Z,5.73
2018-09-21T23:31:55.651Z,5.57
2018-09-21T23:34:01.413Z,6.57
2018-09-21T23:36:07.771Z,10.57
2018-09-21T23:38:12.935Z,7.60
2018-09-21T23:40:16.920Z,7.00
2018-09-21T23:42:21.658Z,8.60
2018-09-21T23:44:28.449Z,6.00
2018-09-21T23:46:32.509Z,9.03
2018-09-21T23:48:36.573Z,8.33
2018-09-21T23:50:40.540Z,5.17
2018-09-21T23:52:44.562Z,7.30
2018-09-21T23:54:55.076Z,9.57
2018-09-21T23:57:00.427Z,6.10
2018-09-21T23:59:05.013Z,8.53
